createdAt,value
2023-02-19T00:01:55.696Z,19.0
2023-02-19T00:03:55.624Z,19.1
2023-02-19T00:05:55.609Z,19.1
2023-02-19T00:07:55.639Z,19.2
2023-02-19T00:09:55.651Z,19.1
2023-02-19T00:11:55.651Z,19.0
2023-02-19T00:13:55.698Z,19.1
2023-02-19T00:15:55.618Z,18.9
2023-02-19T00:17:55.591Z,19.1
2023-02-19T00:19:55.627Z,19.1
2023-02-19T00:21:55.610Z,19.3
2023-02-19T00:23:55.600Z,19.2
2023-02-19T00:25:55.667Z,19.1
2023-02-19T00:27:55.601Z,19.1
2023-02-19T00:29:55.596Z,18.9
2023-02-19T00:31:55.694Z,19.1
2023-02-19T00:33:55.617Z,19.1
2023-02-19T00:35:55.612Z,19.1
2023-02-19T00:37:55.645Z,19.0
2023-02-19T00:39:55.593Z,19.1
2023-02-19T00:42:25.694Z,19.0
2023-02-19T00:44:25.601Z,18.8
2023-02-19T00:46:25.678Z,18.7
2023-02-19T00:48:25.607Z,18.7
2023-02-19T00:50:25.625Z,18.7
2023-02-19T00:52:25.637Z,18.8
2023-02-19T00:54:25.706Z,18.7
2023-02-19T00:56:25.620Z,18.9
2023-02-19T00:58:25.604Z,18.5
2023-02-19T01:00:25.729Z,18.5
2023-02-19T01:02:25.617Z,18.3
2023-02-19T01:04:25.639Z,18.1
2023-02-19T01:06:25.629Z,18.0
2023-02-19T01:08:25.639Z,18.4
2023-02-19T01:10:25.656Z,18.5
2023-02-19T01:12:25.623Z,18.7
2023-02-19T01:14:25.731Z,18.6
2023-02-19T01:16:25.653Z,18.5
2023-02-19T01:18:25.623Z,18.3
2023-02-19T01:20:25.620Z,18.1
2023-02-19T01:22:25.613Z,18.1
2023-02-19T01:24:25.647Z,17.9
2023-02-19T01:26:25.663Z,17.7
2023-02-19T01:28:25.690Z,17.9
2023-02-19T01:30:25.691Z,18.1
2023-02-19T01:32:25.697Z,17.8
2023-02-19T01:34:25.651Z,18.0
2023-02-19T01:36:25.639Z,17.9
2023-02-19T01:38:25.644Z,17.8
2023-02-19T01:40:25.622Z,17.8
2023-02-19T01:42:25.641Z,17.9
2023-02-19T01:44:25.642Z,18.0
2023-02-19T01:46:25.679Z,18.0
2023-02-19T01:48:25.645Z,18.1
2023-02-19T01:50:25.653Z,18.3
2023-02-19T01:52:25.655Z,18.2
2023-02-19T01:54:25.644Z,18.4
2023-02-19T01:56:25.719Z,18.2
2023-02-19T01:58:25.645Z,18.2
2023-02-19T02:00:25.755Z,18.1
2023-02-19T02:02:25.764Z,18.3
2023-02-19T02:04:25.677Z,18.3
2023-02-19T02:06:25.658Z,18.1
2023-02-19T02:08:25.676Z,18.1
2023-02-19T02:10:25.681Z,18.3
2023-02-19T02:12:25.653Z,18.1
2023-02-19T02:14:25.694Z,18.1
2023-02-19T02:16:25.702Z,17.9
2023-02-19T02:18:25.689Z,17.9
2023-02-19T02:20:25.792Z,18.0
2023-02-19T02:22:25.672Z,18.1
2023-02-19T02:24:25.688Z,18.3
2023-02-19T02:26:25.651Z,18.3
2023-02-19T02:28:25.677Z,18.1
2023-02-19T02:30:55.791Z,18.1
2023-02-19T02:32:55.683Z,18.1
2023-02-19T02:34:55.680Z,17.9
2023-02-19T02:36:55.720Z,18.1
2023-02-19T02:38:55.754Z,18.2
2023-02-19T02:40:55.740Z,18.1
2023-02-19T02:42:55.691Z,17.9
2023-02-19T02:44:55.695Z,18.0
2023-02-19T02:46:55.691Z,18.4
2023-02-19T02:48:55.705Z,18.3
2023-02-19T02:50:55.703Z,18.1
2023-02-19T02:52:55.706Z,18.3
2023-02-19T02:54:55.695Z,18.1
2023-02-19T02:56:55.723Z,18.2
2023-02-19T02:58:55.714Z,18.2
2023-02-19T03:00:55.809Z,18.3
2023-02-19T03:02:55.692Z,18.3
2023-02-19T03:04:55.731Z,18.4
2023-02-19T03:06:55.718Z,18.6
2023-02-19T03:08:55.727Z,18.8
2023-02-19T03:10:55.711Z,18.8
2023-02-19T03:12:55.713Z,19.0
2023-02-19T03:14:55.706Z,19.0
2023-02-19T03:16:55.712Z,19.1
2023-02-19T03:18:55.700Z,19.1
2023-02-19T03:20:55.707Z,19.2
2023-02-19T03:22:55.712Z,19.1
2023-02-19T03:24:55.802Z,19.3
2023-02-19T03:26:55.711Z,19.6
2023-02-19T03:28:55.708Z,19.8
2023-02-19T03:30:55.839Z,19.6
2023-02-19T03:32:55.746Z,19.5
2023-02-19T03:34:55.740Z,19.5
2023-02-19T03:36:55.833Z,19.6
2023-02-19T03:38:56.020Z,19.6
2023-02-19T03:40:55.723Z,19.9
2023-02-19T03:42:56.240Z,20.0
2023-02-19T03:44:55.738Z,20.1
2023-02-19T03:46:55.722Z,19.8
2023-02-19T03:48:55.829Z,19.8
2023-02-19T03:50:55.720Z,19.7
2023-02-19T03:52:55.721Z,19.6
2023-02-19T03:54:55.750Z,19.5
2023-02-19T03:56:55.787Z,19.6
2023-02-19T03:58:55.817Z,19.4
2023-02-19T04:00:55.727Z,19.2
2023-02-19T04:02:55.749Z,19.4
2023-02-19T04:04:55.774Z,19.3
2023-02-19T04:06:55.740Z,19.3
2023-02-19T04:08:55.743Z,19.1
2023-02-19T04:10:55.745Z,19.0
2023-02-19T04:12:55.748Z,18.9
2023-02-19T04:14:55.812Z,18.9
2023-02-19T04:16:55.835Z,19.0
2023-02-19T04:18:55.743Z,19.1
2023-02-19T04:21:25.753Z,19.1
2023-02-19T04:23:25.744Z,19.1
2023-02-19T04:25:25.760Z,19.0
2023-02-19T04:27:25.759Z,19.0
2023-02-19T04:29:25.821Z,19.2
2023-02-19T04:31:25.822Z,19.1
2023-02-19T04:33:25.847Z,19.2
2023-02-19T04:35:25.756Z,19.0
2023-02-19T04:37:26.005Z,18.9
2023-02-19T04:39:25.764Z,18.9
2023-02-19T04:41:25.848Z,18.7
2023-02-19T04:43:25.762Z,18.5
2023-02-19T04:45:25.746Z,18.4
2023-02-19T04:47:25.756Z,18.5
2023-02-19T04:49:25.880Z,18.4
2023-02-19T04:51:25.759Z,18.4
2023-02-19T04:53:25.757Z,18.6
2023-02-19T04:55:25.800Z,18.8
2023-02-19T04:57:25.786Z,18.7
2023-02-19T04:59:25.828Z,18.9
2023-02-19T05:01:25.773Z,19.0
2023-02-19T05:03:25.762Z,19.0
2023-02-19T05:05:25.776Z,18.8
2023-02-19T05:07:25.909Z,18.7
2023-02-19T05:09:25.771Z,18.5
2023-02-19T05:11:25.832Z,18.4
2023-02-19T05:13:25.915Z,18.5
2023-02-19T05:15:25.849Z,18.5
2023-02-19T05:17:25.773Z,18.7
2023-02-19T05:19:25.777Z,18.9
2023-02-19T05:21:25.773Z,18.9
2023-02-19T05:23:25.784Z,18.6
2023-02-19T05:25:25.767Z,18.5
2023-02-19T05:27:25.837Z,18.2
2023-02-19T05:29:25.776Z,18.3
2023-02-19T05:31:25.916Z,18.4
2023-02-19T05:33:25.812Z,18.3
2023-02-19T05:35:25.788Z,18.4
2023-02-19T05:37:25.787Z,18.3
2023-02-19T05:39:25.898Z,18.3
2023-02-19T05:41:25.858Z,18.5
2023-02-19T05:43:25.864Z,18.8
2023-02-19T05:45:25.914Z,19.2
2023-02-19T05:47:25.796Z,19.1
2023-02-19T05:49:26.150Z,19.4
2023-02-19T05:51:26.079Z,19.1
2023-02-19T05:53:25.970Z,18.9
2023-02-19T05:55:25.914Z,18.7
2023-02-19T05:57:26.057Z,18.8
2023-02-19T05:59:25.930Z,18.6
2023-02-19T06:01:25.933Z,18.7
2023-02-19T06:03:26.118Z,18.9
2023-02-19T06:05:26.101Z,19.0
2023-02-19T06:07:33.119Z,19.1
2023-02-19T06:09:26.249Z,19.5
2023-02-19T06:11:56.068Z,19.4
2023-02-19T06:13:56.113Z,19.4
2023-02-19T06:15:35.872Z,19.5
2023-02-19T06:17:35.898Z,19.5
2023-02-19T06:19:36.004Z,19.3
2023-02-19T06:21:35.953Z,19.3
2023-02-19T06:23:35.981Z,19.5
2023-02-19T06:25:35.896Z,19.5
2023-02-19T06:27:36.011Z,19.4
2023-02-19T06:29:35.931Z,19.4
2023-02-19T06:31:36.014Z,19.5
2023-02-19T06:33:35.972Z,19.5
2023-02-19T06:35:35.966Z,19.6
2023-02-19T06:37:35.991Z,19.6
2023-02-19T06:39:36.008Z,19.9
2023-02-19T06:41:35.947Z,19.9
2023-02-19T06:43:35.902Z,19.6
2023-02-19T06:45:35.974Z,19.6
2023-02-19T06:47:35.945Z,19.6
2023-02-19T06:50:05.970Z,19.4
2023-02-19T06:52:05.910Z,19.5
2023-02-19T06:54:06.016Z,19.7
2023-02-19T06:56:05.940Z,19.5
2023-02-19T06:58:06.027Z,19.6
2023-02-19T07:00:05.941Z,19.8
2023-02-19T07:02:05.971Z,19.6
2023-02-19T07:04:06.010Z,19.5
2023-02-19T07:06:05.914Z,19.7
2023-02-19T07:08:05.904Z,19.6
2023-02-19T07:10:05.913Z,19.4
2023-02-19T07:12:05.938Z,19.7
2023-02-19T07:14:05.902Z,19.6
2023-02-19T07:16:05.942Z,19.5
2023-02-19T07:18:05.964Z,19.5
2023-02-19T07:20:05.904Z,19.9
2023-02-19T07:22:05.919Z,19.7
2023-02-19T07:24:05.988Z,19.7
2023-02-19T07:26:06.135Z,19.8
2023-02-19T07:28:05.927Z,19.8
2023-02-19T07:30:05.967Z,19.9
2023-02-19T07:32:06.005Z,20.0
2023-02-19T07:34:05.963Z,19.9
2023-02-19T07:36:06.069Z,19.9
2023-02-19T07:38:06.040Z,19.9
2023-02-19T07:40:06.147Z,19.8
2023-02-19T07:42:05.967Z,19.8
2023-02-19T07:44:05.994Z,19.8
2023-02-19T07:46:05.906Z,19.6
2023-02-19T07:48:05.906Z,19.5
2023-02-19T07:50:05.916Z,19.6
2023-02-19T07:52:05.917Z,20.0
2023-02-19T07:54:05.932Z,19.9
2023-02-19T07:56:06.046Z,19.9
2023-02-19T07:58:06.213Z,19.9
2023-02-19T08:00:05.981Z,19.8
2023-02-19T08:02:05.917Z,19.7
2023-02-19T08:04:05.944Z,19.5
2023-02-19T08:06:05.959Z,19.4
2023-02-19T08:08:05.927Z,19.6
2023-02-19T08:10:05.932Z,19.6
2023-02-19T08:12:05.931Z,19.5
2023-02-19T08:14:06.144Z,19.5
2023-02-19T08:16:17.087Z,19.6
2023-02-19T08:18:05.971Z,19.3
2023-02-19T08:20:05.967Z,19.0
2023-02-19T08:22:05.944Z,19.0
2023-02-19T08:24:05.934Z,19.0
2023-02-19T08:26:05.960Z,19.0
2023-02-19T08:28:06.161Z,19.0
2023-02-19T08:30:05.992Z,18.7
2023-02-19T08:32:06.049Z,18.5
2023-02-19T08:34:05.980Z,18.8
2023-02-19T08:36:05.946Z,18.8
2023-02-19T08:38:05.946Z,18.9
2023-02-19T08:40:05.942Z,19.0
2023-02-19T08:42:36.072Z,18.7
2023-02-19T08:44:35.955Z,18.5
2023-02-19T08:46:35.962Z,18.6
2023-02-19T08:48:35.958Z,18.5
2023-02-19T08:50:35.947Z,18.5
2023-02-19T08:52:35.962Z,18.4
2023-02-19T08:54:37.250Z,18.5
2023-02-19T08:56:35.963Z,18.6
2023-02-19T08:58:36.076Z,18.5
2023-02-19T09:00:35.991Z,18.5
2023-02-19T09:02:35.996Z,18.5
2023-02-19T09:04:35.994Z,18.3
2023-02-19T09:06:35.954Z,18.2
2023-02-19T09:08:36.130Z,18.0
2023-02-19T09:10:35.981Z,18.1
2023-02-19T09:12:35.967Z,18.0
2023-02-19T09:14:35.991Z,17.7
2023-02-19T09:16:35.988Z,17.9
2023-02-19T09:18:35.973Z,18.0
2023-02-19T09:20:35.999Z,17.8
2023-02-19T09:22:35.992Z,18.0
2023-02-19T09:24:35.974Z,18.0
2023-02-19T09:26:37.729Z,18.2
2023-02-19T09:28:35.991Z,18.1
2023-02-19T09:30:36.072Z,18.3
2023-02-19T09:32:35.990Z,18.1
2023-02-19T09:34:35.996Z,17.9
2023-02-19T09:36:36.021Z,17.7
2023-02-19T09:38:36.005Z,17.6
2023-02-19T09:40:35.978Z,17.6
2023-02-19T09:42:36.018Z,17.6
2023-02-19T09:44:35.982Z,17.9
2023-02-19T09:46:36.019Z,17.9
2023-02-19T09:48:36.117Z,17.9
2023-02-19T09:50:36.000Z,18.1
2023-02-19T09:52:35.986Z,18.2
2023-02-19T09:54:35.997Z,18.5
2023-02-19T09:56:36.014Z,18.4
2023-02-19T09:58:36.007Z,18.3
2023-02-19T10:00:35.996Z,18.6
2023-02-19T10:02:35.997Z,18.6
2023-02-19T10:04:36.006Z,18.9
2023-02-19T10:06:36.022Z,18.7
2023-02-19T10:08:36.001Z,18.6
2023-02-19T10:10:36.009Z,18.7
2023-02-19T10:12:36.010Z,18.7
2023-02-19T10:14:36.013Z,18.7
2023-02-19T10:16:36.014Z,18.5
2023-02-19T10:18:36.028Z,18.4
2023-02-19T10:20:36.008Z,18.4
2023-02-19T10:22:36.104Z,18.4
2023-02-19T10:24:38.361Z,18.2
2023-02-19T10:26:36.001Z,18.0
2023-02-19T10:28:36.031Z,18.4
2023-02-19T10:30:36.124Z,18.3
2023-02-19T10:32:36.041Z,18.3
2023-02-19T10:35:06.035Z,18.5
2023-02-19T10:37:06.026Z,18.5
2023-02-19T10:39:06.232Z,18.4
2023-02-19T10:41:06.212Z,18.4
2023-02-19T10:43:06.020Z,18.3
2023-02-19T10:45:06.022Z,18.3
2023-02-19T10:47:06.017Z,18.2
2023-02-19T10:49:06.150Z,18.1
2023-02-19T10:51:06.023Z,18.2
2023-02-19T10:53:06.010Z,18.2
2023-02-19T10:55:06.038Z,18.1
2023-02-19T10:57:06.152Z,17.9
2023-02-19T10:59:06.039Z,18.2
2023-02-19T11:01:06.310Z,18.2
2023-02-19T11:03:06.029Z,18.3
2023-02-19T11:05:06.083Z,18.2
2023-02-19T11:07:06.032Z,18.4
2023-02-19T11:09:06.048Z,18.6
2023-02-19T11:11:06.034Z,18.5
2023-02-19T11:13:06.129Z,18.5
2023-02-19T11:15:06.545Z,18.4
2023-02-19T11:17:06.071Z,18.5
2023-02-19T11:19:06.071Z,18.7
2023-02-19T11:21:06.072Z,19.0
2023-02-19T11:23:06.069Z,19.0
2023-02-19T11:25:06.060Z,19.3
2023-02-19T11:27:06.221Z,19.3
2023-02-19T11:29:06.056Z,19.1
2023-02-19T11:31:06.126Z,19.2
2023-02-19T11:33:06.055Z,19.3
2023-02-19T11:35:06.072Z,18.9
2023-02-19T11:37:06.044Z,18.8
2023-02-19T11:39:06.073Z,18.8
2023-02-19T11:41:06.088Z,19.0
2023-02-19T11:43:06.087Z,19.4
2023-02-19T11:45:06.079Z,19.2
2023-02-19T11:47:06.109Z,19.2
2023-02-19T11:49:06.131Z,19.3
2023-02-19T11:51:06.086Z,19.2
2023-02-19T11:53:06.079Z,19.3
2023-02-19T11:55:06.062Z,19.3
2023-02-19T11:57:06.187Z,19.4
2023-02-19T11:59:06.063Z,19.4
2023-02-19T12:01:06.086Z,19.3
2023-02-19T12:03:06.082Z,19.3
2023-02-19T12:05:06.083Z,19.2
2023-02-19T12:07:06.116Z,19.3
2023-02-19T12:09:06.071Z,19.1
2023-02-19T12:11:06.093Z,19.1
2023-02-19T12:13:06.091Z,19.1
2023-02-19T12:15:06.078Z,19.1
2023-02-19T12:17:06.099Z,19.1
2023-02-19T12:19:06.199Z,19.1
2023-02-19T12:21:06.115Z,18.9
2023-02-19T12:23:06.108Z,18.9
2023-02-19T12:25:06.077Z,18.7
2023-02-19T12:27:06.076Z,18.9
2023-02-19T12:29:36.090Z,18.7
2023-02-19T12:31:36.238Z,18.7
2023-02-19T12:33:36.124Z,18.8
2023-02-19T12:35:36.106Z,18.7
2023-02-19T12:37:36.233Z,19.0
2023-02-19T12:39:36.167Z,19.0
2023-02-19T12:41:36.190Z,18.7
2023-02-19T12:43:36.166Z,18.6
2023-02-19T12:45:36.372Z,18.9
2023-02-19T12:47:36.205Z,18.6
2023-02-19T12:49:36.103Z,18.8
2023-02-19T12:51:36.128Z,18.5
2023-02-19T12:53:36.241Z,18.1
2023-02-19T12:55:36.184Z,18.3
2023-02-19T12:57:36.247Z,18.4
2023-02-19T12:59:36.185Z,18.2
2023-02-19T13:01:36.218Z,18.1
2023-02-19T13:03:36.223Z,18.0
2023-02-19T13:05:36.126Z,18.3
2023-02-19T13:07:36.209Z,18.1
2023-02-19T13:11:44.375Z,18.2
2023-02-19T13:13:44.383Z,18.6
2023-02-19T13:15:44.391Z,18.9
2023-02-19T13:17:44.389Z,18.6
2023-02-19T13:19:44.401Z,18.5
2023-02-19T13:21:44.371Z,18.3
2023-02-19T13:23:44.394Z,18.4
2023-02-19T13:25:44.385Z,18.5
2023-02-19T13:27:44.382Z,18.7
2023-02-19T13:29:44.438Z,18.6
2023-02-19T13:31:44.484Z,18.6
2023-02-19T13:33:44.392Z,18.7
2023-02-19T13:35:44.390Z,18.9
2023-02-19T13:37:44.393Z,18.9
2023-02-19T13:39:44.414Z,18.8
2023-02-19T13:41:44.396Z,19.0
2023-02-19T13:43:44.405Z,19.1
2023-02-19T13:45:44.392Z,18.9
2023-02-19T13:47:44.401Z,19.1
2023-02-19T13:49:44.394Z,18.6
2023-02-19T13:51:44.499Z,18.6
2023-02-19T13:53:44.405Z,18.6
2023-02-19T13:55:44.405Z,18.4
2023-02-19T13:57:44.418Z,18.3
2023-02-19T13:59:44.399Z,18.5
2023-02-19T14:01:44.448Z,18.6
2023-02-19T14:03:44.408Z,18.7
2023-02-19T14:05:44.399Z,18.6
2023-02-19T14:07:44.512Z,19.2
2023-02-19T14:09:44.433Z,19.0
2023-02-19T14:11:44.394Z,19.1
2023-02-19T14:13:44.440Z,18.8
2023-02-19T14:15:44.541Z,18.7
2023-02-19T14:17:44.397Z,18.8
2023-02-19T14:19:44.418Z,19.0
2023-02-19T14:21:44.515Z,19.0
2023-02-19T14:23:44.430Z,19.2
2023-02-19T14:25:44.420Z,19.3
2023-02-19T14:27:44.413Z,19.3
2023-02-19T14:29:44.459Z,19.3
2023-02-19T14:31:44.550Z,19.3
2023-02-19T14:33:44.406Z,19.1
2023-02-19T14:35:44.424Z,19.3
2023-02-19T14:37:44.437Z,19.2
2023-02-19T14:39:44.422Z,19.1
2023-02-19T14:41:44.416Z,18.9
2023-02-19T14:43:44.420Z,18.9
2023-02-19T14:45:44.422Z,18.9
2023-02-19T14:47:44.424Z,18.8
2023-02-19T14:49:44.413Z,18.8
2023-02-19T14:51:44.417Z,18.9
2023-02-19T14:53:44.447Z,19.0
2023-02-19T14:56:14.445Z,19.1
2023-02-19T14:58:14.434Z,19.2
2023-02-19T15:00:14.447Z,19.1
2023-02-19T15:02:14.436Z,18.9
2023-02-19T15:04:14.423Z,19.0
2023-02-19T15:06:14.452Z,18.7
2023-02-19T15:08:14.460Z,18.6
2023-02-19T15:10:14.458Z,18.6
2023-02-19T15:12:14.444Z,18.7
2023-02-19T15:14:14.437Z,18.8
2023-02-19T15:16:14.482Z,18.6
2023-02-19T15:18:14.463Z,18.5
2023-02-19T15:20:14.462Z,18.3
2023-02-19T15:22:14.440Z,18.1
2023-02-19T15:24:14.452Z,18.1
2023-02-19T15:26:14.735Z,18.1
2023-02-19T15:28:14.454Z,18.1
2023-02-19T15:30:14.457Z,18.1
2023-02-19T15:32:14.529Z,17.9
2023-02-19T15:34:14.461Z,17.8
2023-02-19T15:36:14.449Z,17.7
2023-02-19T15:38:14.462Z,17.8
2023-02-19T15:40:14.464Z,17.9
2023-02-19T15:42:14.570Z,18.0
2023-02-19T15:44:14.480Z,18.2
2023-02-19T15:46:14.500Z,18.2
2023-02-19T15:48:14.521Z,18.3
2023-02-19T15:50:14.470Z,18.3
2023-02-19T15:52:14.462Z,18.2
2023-02-19T15:54:14.488Z,18.5
2023-02-19T15:56:14.527Z,18.6
2023-02-19T15:58:14.504Z,18.5
2023-02-19T16:00:14.540Z,18.6
2023-02-19T16:02:14.477Z,18.5
2023-02-19T16:04:14.479Z,18.5
2023-02-19T16:06:14.469Z,18.4
2023-02-19T16:08:14.487Z,18.4
2023-02-19T16:10:14.492Z,18.5
2023-02-19T16:12:14.476Z,18.2
2023-02-19T16:14:14.483Z,18.1
2023-02-19T16:16:15.372Z,18.3
2023-02-19T16:18:14.496Z,18.7
2023-02-19T16:20:14.478Z,18.7
2023-02-19T16:22:14.508Z,18.8
2023-02-19T16:24:14.498Z,19.0
2023-02-19T16:26:14.629Z,18.8
2023-02-19T16:28:14.500Z,18.8
2023-02-19T16:30:14.572Z,19.0
2023-02-19T16:32:14.583Z,19.0
2023-02-19T16:34:14.564Z,19.1
2023-02-19T16:36:14.507Z,19.3
2023-02-19T16:38:14.512Z,19.5
2023-02-19T16:40:16.690Z,19.4
2023-02-19T16:42:14.508Z,19.2
2023-02-19T16:44:14.563Z,19.1
2023-02-19T16:46:44.486Z,19.2
2023-02-19T16:48:44.515Z,19.4
2023-02-19T16:50:44.511Z,19.6
2023-02-19T16:52:44.515Z,19.8
2023-02-19T16:54:44.512Z,19.6
2023-02-19T16:56:44.549Z,19.3
2023-02-19T16:58:44.497Z,19.3
2023-02-19T17:00:44.553Z,19.0
2023-02-19T17:02:44.537Z,19.0
2023-02-19T17:04:44.503Z,19.2
2023-02-19T17:06:44.603Z,19.4
2023-02-19T17:08:44.544Z,19.3
2023-02-19T17:10:44.518Z,19.5
2023-02-19T17:12:44.714Z,19.6
2023-02-19T17:14:44.509Z,19.5
2023-02-19T17:16:44.600Z,19.4
2023-02-19T17:18:44.554Z,19.2
2023-02-19T17:20:44.544Z,19.3
2023-02-19T17:22:44.525Z,19.2
2023-02-19T17:24:44.604Z,19.0
2023-02-19T17:26:44.544Z,18.9
2023-02-19T17:28:44.727Z,18.8
2023-02-19T17:30:44.536Z,18.6
2023-02-19T17:32:44.533Z,18.9
2023-02-19T17:34:44.544Z,18.9
2023-02-19T17:36:44.538Z,18.8
2023-02-19T17:38:44.581Z,18.8
2023-02-19T17:40:44.535Z,18.9
2023-02-19T17:42:44.534Z,18.9
2023-02-19T17:44:44.548Z,18.7
2023-02-19T17:46:44.529Z,18.7
2023-02-19T17:48:44.528Z,18.7
2023-02-19T17:50:44.626Z,18.7
2023-02-19T17:52:44.556Z,18.6
2023-02-19T17:54:44.548Z,18.4
2023-02-19T17:56:44.578Z,18.6
2023-02-19T17:58:44.552Z,18.5
2023-02-19T18:00:44.532Z,18.8
2023-02-19T18:02:44.556Z,19.1
2023-02-19T18:04:44.683Z,19.0
2023-02-19T18:06:44.597Z,19.0
2023-02-19T18:08:44.561Z,19.4
2023-02-19T18:10:44.549Z,19.2
2023-02-19T18:12:44.566Z,19.2
2023-02-19T18:14:44.566Z,19.1
2023-02-19T18:16:44.624Z,18.9
2023-02-19T18:18:44.588Z,18.9
2023-02-19T18:20:44.561Z,18.9
2023-02-19T18:22:44.588Z,18.9
2023-02-19T18:24:44.552Z,18.9
2023-02-19T18:26:44.559Z,19.1
2023-02-19T18:28:44.776Z,19.2
2023-02-19T18:30:45.135Z,19.1
2023-02-19T18:32:44.584Z,19.1
2023-02-19T18:34:44.582Z,19.0
2023-02-19T18:36:44.571Z,19.0
2023-02-19T18:39:14.598Z,18.7
2023-02-19T18:41:14.813Z,18.6
2023-02-19T18:43:14.771Z,18.8
2023-02-19T18:45:14.575Z,18.6
2023-02-19T18:47:14.595Z,18.4
2023-02-19T18:49:14.566Z,18.3
2023-02-19T18:51:14.658Z,18.1
2023-02-19T18:53:14.558Z,18.3
2023-02-19T18:55:14.601Z,18.5
2023-02-19T18:57:14.568Z,18.4
2023-02-19T18:59:14.677Z,18.5
2023-02-19T19:01:14.862Z,18.4
2023-02-19T19:03:14.705Z,18.7
2023-02-19T19:05:14.599Z,18.5
2023-02-19T19:07:14.602Z,18.1
2023-02-19T19:09:14.591Z,17.9
2023-02-19T19:11:14.825Z,18.0
2023-02-19T19:13:14.577Z,18.2
2023-02-19T19:15:17.077Z,18.2
2023-02-19T19:17:14.582Z,18.2
2023-02-19T19:19:14.948Z,18.1
2023-02-19T19:21:14.596Z,18.1
2023-02-19T19:23:14.669Z,18.1
2023-02-19T19:25:14.714Z,18.3
2023-02-19T19:27:14.610Z,18.4
2023-02-19T19:29:14.597Z,18.5
2023-02-19T19:31:14.887Z,18.4
2023-02-19T19:33:14.593Z,18.5
2023-02-19T19:35:14.693Z,18.4
2023-02-19T19:37:14.679Z,18.8
2023-02-19T19:39:14.596Z,18.9
2023-02-19T19:41:14.759Z,19.3
2023-02-19T19:43:14.905Z,19.1
2023-02-19T19:45:14.702Z,19.2
2023-02-19T19:47:14.751Z,19.3
2023-02-19T19:49:14.599Z,19.4
2023-02-19T19:51:14.758Z,19.8
2023-02-19T19:53:14.630Z,19.5
2023-02-19T19:55:14.596Z,19.5
2023-02-19T19:57:14.687Z,19.4
2023-02-19T19:59:14.812Z,19.4
2023-02-19T20:01:14.785Z,19.1
2023-02-19T20:03:14.609Z,18.9
2023-02-19T20:05:14.719Z,19.0
2023-02-19T20:07:14.691Z,19.1
2023-02-19T20:09:14.696Z,19.1
2023-02-19T20:13:22.941Z,19.1
2023-02-19T20:15:22.940Z,19.3
2023-02-19T20:17:22.925Z,19.3
2023-02-19T20:19:22.919Z,19.5
2023-02-19T20:21:22.892Z,19.6
2023-02-19T20:23:22.933Z,19.6
2023-02-19T20:25:23.101Z,19.5
2023-02-19T20:27:22.914Z,19.4
2023-02-19T20:29:22.928Z,19.4
2023-02-19T20:31:23.190Z,19.3
2023-02-19T20:33:22.944Z,19.1
2023-02-19T20:35:24.620Z,19.2
2023-02-19T20:37:22.948Z,19.3
2023-02-19T20:39:22.920Z,19.0
2023-02-19T20:41:22.923Z,18.9
2023-02-19T20:43:22.960Z,19.2
2023-02-19T20:45:22.937Z,19.3
2023-02-19T20:47:22.937Z,19.4
2023-02-19T20:49:22.931Z,19.4
2023-02-19T20:51:23.078Z,19.1
2023-02-19T20:53:22.942Z,19.3
2023-02-19T20:55:22.950Z,19.4
2023-02-19T20:57:22.934Z,19.4
2023-02-19T20:59:52.938Z,19.1
2023-02-19T21:01:52.960Z,19.2
2023-02-19T21:03:52.953Z,19.3
2023-02-19T21:05:52.937Z,19.3
2023-02-19T21:07:52.943Z,19.4
2023-02-19T21:09:53.024Z,19.4
2023-02-19T21:11:52.980Z,19.6
2023-02-19T21:13:52.950Z,19.5
2023-02-19T21:15:52.969Z,19.3
2023-02-19T21:17:53.002Z,19.3
2023-02-19T21:19:52.960Z,19.1
2023-02-19T21:21:52.937Z,19.2
2023-02-19T21:23:52.954Z,19.0
2023-02-19T21:25:54.552Z,19.0
2023-02-19T21:27:52.985Z,18.8
2023-02-19T21:29:52.962Z,18.8
2023-02-19T21:31:53.134Z,19.0
2023-02-19T21:33:52.968Z,19.1
2023-02-19T21:35:52.953Z,19.0
2023-02-19T21:37:52.964Z,18.6
2023-02-19T21:39:52.972Z,18.8
2023-02-19T21:41:52.974Z,18.8
2023-02-19T21:43:53.181Z,18.7
2023-02-19T21:45:53.034Z,18.5
2023-02-19T21:47:52.968Z,18.6
2023-02-19T21:49:52.963Z,18.6
2023-02-19T21:51:52.983Z,18.8
2023-02-19T21:53:52.968Z,18.6
2023-02-19T21:55:58.231Z,18.5
2023-02-19T21:57:52.982Z,18.5
2023-02-19T21:59:53.008Z,18.5
2023-02-19T22:01:53.001Z,18.7
2023-02-19T22:03:52.988Z,18.6
2023-02-19T22:05:53.033Z,18.7
2023-02-19T22:07:52.989Z,18.5
2023-02-19T22:09:52.979Z,18.5
2023-02-19T22:11:52.969Z,18.6
2023-02-19T22:13:52.963Z,18.6
2023-02-19T22:15:52.973Z,18.7
2023-02-19T22:17:52.951Z,18.7
2023-02-19T22:19:53.114Z,18.8
2023-02-19T22:21:53.023Z,18.7
2023-02-19T22:23:52.978Z,18.8
2023-02-19T22:25:52.993Z,18.7
2023-02-19T22:27:53.066Z,19.1
2023-02-19T22:29:52.987Z,19.2
2023-02-19T22:31:53.159Z,19.2
2023-02-19T22:33:52.987Z,19.1
2023-02-19T22:35:53.006Z,19.2
2023-02-19T22:37:52.994Z,19.3
2023-02-19T22:39:52.987Z,19.3
2023-02-19T22:41:52.992Z,19.4
2023-02-19T22:43:52.983Z,19.1
2023-02-19T22:45:53.017Z,19.2
2023-02-19T22:48:30.072Z,19.0
2023-02-19T22:50:22.985Z,18.7
2023-02-19T22:52:23.074Z,18.8
2023-02-19T22:54:22.992Z,18.8
2023-02-19T22:56:23.022Z,19.0
2023-02-19T22:58:23.007Z,19.0
2023-02-19T23:00:23.000Z,19.2
2023-02-19T23:02:23.016Z,19.0
2023-02-19T23:04:23.137Z,19.0
2023-02-19T23:06:23.006Z,19.1
2023-02-19T23:08:22.998Z,19.1
2023-02-19T23:10:23.105Z,19.3
2023-02-19T23:12:23.027Z,19.2
2023-02-19T23:14:23.025Z,19.2
2023-02-19T23:16:23.069Z,19.4
2023-02-19T23:18:23.062Z,19.4
2023-02-19T23:20:23.024Z,19.6
2023-02-19T23:22:23.024Z,19.7
2023-02-19T23:24:23.023Z,20.0
2023-02-19T23:26:23.132Z,20.0
2023-02-19T23:28:23.035Z,19.8
2023-02-19T23:30:23.076Z,19.8
2023-02-19T23:32:23.031Z,19.9
2023-02-19T23:34:23.085Z,20.0
2023-02-19T23:36:23.043Z,20.2
2023-02-19T23:38:23.033Z,20.3
2023-02-19T23:40:23.026Z,20.1
2023-02-19T23:42:23.146Z,20.2
2023-02-19T23:44:23.025Z,20.2
2023-02-19T23:46:23.061Z,20.1
2023-02-19T23:48:23.044Z,20.1
2023-02-19T23:50:23.034Z,20.1
2023-02-19T23:52:23.124Z,20.0
2023-02-19T23:54:23.022Z,19.9
2023-02-19T23:56:23.019Z,19.9
2023-02-19T23:58:23.039Z,19.9
